Time;durP1;ratioP1;P1;durP2;ratioP2;P2;SDS_P1;SDS_P2;PMS_P1;PMS_P2;Temp;Humidity;BMP_temperature;BMP_pressure;BME280_temperature;BME280_humidity;BME280_pressure;Samples;Min_cycle;Max_cycle;Signal;HPM_P1;HPM_P2
2021/10/01 00:00:52;;;;;;;5.78;1.38;;;17.20;62.40;;;;;;4809003;29;20073;-69
2021/10/01 00:03:18;;;;;;;5.07;1.00;;;17.20;62.50;;;;;;4808405;29;20051;-69
2021/10/01 00:05:43;;;;;;;3.78;1.33;;;17.20;62.50;;;;;;4807969;29;20050;-69
2021/10/01 00:08:10;;;;;;;3.10;0.70;;;17.20;62.50;;;;;;4808196;29;20454;-69
2021/10/01 00:10:36;;;;;;;3.83;0.90;;;17.20;62.60;;;;;;4808144;29;20050;-69
2021/10/01 00:13:02;;;;;;;2.70;0.85;;;17.20;62.60;;;;;;4808839;29;20352;-69
2021/10/01 00:15:28;;;;;;;4.40;1.08;;;17.20;62.60;;;;;;4808479;29;20059;-69
2021/10/01 00:17:54;;;;;;;3.58;0.60;;;17.20;62.60;;;;;;4808587;29;20050;-69
2021/10/01 00:20:20;;;;;;;2.60;0.77;;;17.20;62.60;;;;;;4808560;29;20050;-69
2021/10/01 00:22:46;;;;;;;4.07;0.80;;;17.20;62.70;;;;;;4808435;29;20463;-69
2021/10/01 00:25:11;;;;;;;7.30;1.13;;;17.20;62.70;;;;;;4808596;29;20454;-69
2021/10/01 00:27:37;;;;;;;4.07;1.17;;;17.20;62.70;;;;;;4808240;29;20051;-69
2021/10/01 00:30:04;;;;;;;4.88;1.10;;;17.20;62.70;;;;;;4808268;29;20055;-69
2021/10/01 00:32:31;;;;;;;4.32;1.05;;;17.20;62.70;;;;;;4808263;29;20055;-69
2021/10/01 00:34:56;;;;;;;4.57;0.90;;;17.20;62.70;;;;;;4807935;29;20055;-69
2021/10/01 00:37:22;;;;;;;4.55;1.33;;;17.20;62.70;;;;;;4807700;29;20043;-69
2021/10/01 00:39:48;;;;;;;7.80;1.52;;;17.20;62.70;;;;;;4808034;29;20051;-69
2021/10/01 00:42:14;;;;;;;3.13;0.80;;;17.20;62.70;;;;;;4807955;29;20171;-69
2021/10/01 00:44:40;;;;;;;3.95;0.98;;;17.20;62.80;;;;;;4808031;29;20057;-69
2021/10/01 00:47:05;;;;;;;6.55;1.30;;;17.20;62.80;;;;;;4808702;29;20061;-69
2021/10/01 00:49:31;;;;;;;4.35;1.15;;;17.20;62.80;;;;;;4808118;29;20050;-69
2021/10/01 00:51:57;;;;;;;2.92;0.70;;;17.20;62.80;;;;;;4808526;29;20047;-69
2021/10/01 00:54:23;;;;;;;5.10;1.15;;;17.10;62.70;;;;;;4807834;29;20066;-69
2021/10/01 00:56:49;;;;;;;2.60;0.90;;;17.10;62.70;;;;;;4807934;29;20110;-69
2021/10/01 00:59:15;;;;;;;6.45;1.15;;;17.10;62.70;;;;;;4791841;29;20404;-69
2021/10/01 01:01:41;;;;;;;2.80;0.95;;;17.20;62.80;;;;;;4808159;29;20200;-69
2021/10/01 01:04:11;;;;;;;3.63;0.80;;;17.10;62.80;;;;;;4807815;29;20459;-69
2021/10/01 01:06:59;;;;;;;2.83;1.00;;;17.20;62.90;;;;;;4808148;29;20055;-69
2021/10/01 01:09:31;;;;;;;3.47;1.20;;;17.20;62.90;;;;;;4807294;29;20059;-69
2021/10/01 01:12:09;;;;;;;4.70;1.08;;;17.10;62.90;;;;;;4807951;29;20054;-69
2021/10/01 01:14:53;;;;;;;3.25;1.00;;;17.20;63.00;;;;;;4807256;29;20058;-69
2021/10/01 01:17:21;;;;;;;;;;;17.20;63.00;;;;;;4809208;29;20058;-69
2021/10/01 01:20:13;;;;;;;5.07;1.15;;;17.10;63.00;;;;;;4811530;29;19925;-69
2021/10/01 01:22:47;;;;;;;5.40;1.00;;;17.10;63.10;;;;;;4812183;29;20051;-69
2021/10/01 01:25:34;;;;;;;6.95;1.83;;;17.10;63.00;;;;;;4811158;29;20451;-69
2021/10/01 01:28:09;;;;;;;2.47;0.73;;;17.10;63.00;;;;;;4811539;29;20090;-69
2021/10/01 01:30:45;;;;;;;5.80;1.10;;;17.10;63.10;;;;;;4811265;29;20525;-69
2021/10/01 01:33:16;;;;;;;4.15;1.35;;;17.10;63.10;;;;;;4810929;29;20078;-69
2021/10/01 01:35:44;;;;;;;4.10;1.17;;;17.10;63.20;;;;;;4811006;29;20054;-69
2021/10/01 01:38:18;;;;;;;4.97;1.17;;;17.10;63.20;;;;;;4810990;29;20101;-69
2021/10/01 01:40:49;;;;;;;3.13;0.90;;;17.10;63.30;;;;;;4810745;29;20098;-69
2021/10/01 01:43:15;;;;;;;3.35;1.33;;;17.10;63.30;;;;;;4811680;29;20051;-69
2021/10/01 01:45:43;;;;;;;4.32;1.00;;;17.10;63.30;;;;;;4811069;29;20124;-70
2021/10/01 01:48:09;;;;;;;3.22;0.88;;;17.10;63.30;;;;;;4811171;29;20055;-69
2021/10/01 01:50:36;;;;;;;3.70;0.90;;;17.10;63.30;;;;;;4811322;29;20371;-69
2021/10/01 01:53:03;;;;;;;4.75;1.30;;;17.10;63.40;;;;;;4811202;29;20425;-69
2021/10/01 01:55:29;;;;;;;5.40;1.15;;;17.10;63.40;;;;;;4795776;29;20086;-69
2021/10/01 01:57:57;;;;;;;5.00;1.17;;;17.10;63.40;;;;;;4810852;29;20073;-69
2021/10/01 02:00:23;;;;;;;4.22;1.25;;;17.10;63.40;;;;;;4811428;29;20135;-69
2021/10/01 02:02:51;;;;;;;3.03;1.23;;;17.10;63.40;;;;;;4809709;29;20047;-69
2021/10/01 02:05:18;;;;;;;3.88;1.10;;;17.10;63.40;;;;;;4810775;29;20130;-69
2021/10/01 02:07:45;;;;;;;3.92;0.93;;;17.10;63.50;;;;;;4810991;29;20356;-69
2021/10/01 02:10:13;;;;;;;3.17;0.80;;;17.10;63.50;;;;;;4810734;29;20063;-69
2021/10/01 02:12:40;;;;;;;5.15;1.15;;;17.10;63.50;;;;;;4810295;29;20050;-69
2021/10/01 02:15:08;;;;;;;5.47;1.27;;;17.10;63.50;;;;;;4810668;29;20058;-69
2021/10/01 02:17:39;;;;;;;3.55;1.25;;;17.10;63.60;;;;;;4810268;29;20059;-69
2021/10/01 02:20:07;;;;;;;3.60;1.30;;;17.10;63.60;;;;;;4810279;29;20536;-69
2021/10/01 02:22:34;;;;;;;5.85;1.08;;;17.10;63.60;;;;;;4810425;29;20138;-69
2021/10/01 02:24:59;;;;;;;7.75;1.52;;;17.10;63.60;;;;;;4810435;29;20130;-69
2021/10/01 02:27:39;;;;;;;3.58;1.20;;;17.10;63.60;;;;;;4810755;29;20407;-69
2021/10/01 02:30:12;;;;;;;4.13;1.30;;;17.10;63.70;;;;;;4809474;29;20067;-69
2021/10/01 02:32:45;;;;;;;3.17;0.85;;;17.10;63.70;;;;;;4809977;29;20058;-69
2021/10/01 02:35:11;;;;;;;4.40;1.58;;;17.10;63.70;;;;;;4810253;29;20057;-69
2021/10/01 02:37:38;;;;;;;3.78;1.38;;;17.10;63.80;;;;;;4809807;29;20043;-69
2021/10/01 02:40:06;;;;;;;3.65;0.95;;;17.10;63.80;;;;;;4809995;29;20059;-69
2021/10/01 02:42:31;;;;;;;3.97;1.08;;;17.10;63.80;;;;;;4810354;29;20050;-69
2021/10/01 02:44:59;;;;;;;4.55;1.10;;;17.10;63.90;;;;;;4809727;29;20332;-69
2021/10/01 02:47:29;;;;;;;3.78;1.50;;;17.10;64.00;;;;;;4809619;29;20491;-69
2021/10/01 02:49:55;;;;;;;5.50;1.38;;;17.10;64.00;;;;;;4810195;29;20055;-69
2021/10/01 02:52:33;;;;;;;4.65;1.08;;;17.10;64.10;;;;;;4809483;29;20075;-69
2021/10/01 02:55:21;;;;;;;4.65;1.52;;;17.10;64.10;;;;;;4809542;29;20050;-69
2021/10/01 02:57:56;;;;;;;4.30;0.95;;;17.10;64.20;;;;;;4809640;29;20042;-69
2021/10/01 03:00:22;;;;;;;3.38;1.25;;;17.00;64.20;;;;;;4810214;29;20149;-69
2021/10/01 03:02:51;;;;;;;2.30;0.90;;;17.00;64.20;;;;;;4809082;29;20055;-69
2021/10/01 03:05:18;;;;;;;7.22;1.33;;;17.10;64.30;;;;;;4809886;29;20043;-69
2021/10/01 03:07:45;;;;;;;5.30;1.60;;;17.10;64.30;;;;;;4809241;29;20047;-69
2021/10/01 03:10:11;;;;;;;4.15;1.10;;;17.00;64.30;;;;;;4809791;29;20051;-69
2021/10/01 03:12:38;;;;;;;5.10;1.25;;;17.00;64.40;;;;;;4809460;29;20066;-69
2021/10/01 03:15:05;;;;;;;6.13;1.27;;;17.10;64.50;;;;;;4809693;29;20066;-69
2021/10/01 03:17:32;;;;;;;3.28;1.08;;;17.00;64.50;;;;;;4809570;29;20054;-69
2021/10/01 03:19:59;;;;;;;4.65;1.45;;;17.10;64.60;;;;;;4809022;29;20451;-69
2021/10/01 03:22:31;;;;;;;3.47;1.00;;;17.10;64.60;;;;;;4809626;29;20066;-69
2021/10/01 03:25:01;;;;;;;3.30;1.38;;;17.10;64.70;;;;;;4809264;29;20133;-69
2021/10/01 03:27:30;;;;;;;3.72;0.77;;;17.10;64.70;;;;;;4809372;29;20133;-69
2021/10/01 03:30:00;;;;;;;3.75;1.10;;;17.10;64.80;;;;;;4809164;29;20047;-69
2021/10/01 03:32:30;;;;;;;4.07;1.02;;;17.00;64.80;;;;;;4808651;29;20076;-69
2021/10/01 03:34:56;;;;;;;3.72;1.48;;;17.10;64.90;;;;;;4809212;29;20055;-69
2021/10/01 03:37:22;;;;;;;3.72;1.15;;;17.10;64.90;;;;;;4809078;29;20047;-69
2021/10/01 03:39:59;;;;;;;3.67;1.08;;;17.00;64.80;;;;;;4809470;29;20051;-69
2021/10/01 03:42:25;;;;;;;5.03;1.00;;;17.00;64.80;;;;;;4809072;29;20066;-69
2021/10/01 03:44:51;;;;;;;3.70;0.98;;;17.00;64.80;;;;;;4808946;29;20374;-69
2021/10/01 03:47:17;;;;;;;4.10;0.90;;;17.00;64.80;;;;;;4808733;29;20051;-69
2021/10/01 03:49:43;;;;;;;3.00;0.93;;;17.00;64.90;;;;;;4808901;29;20062;-69
2021/10/01 03:52:10;;;;;;;4.07;0.93;;;17.00;64.80;;;;;;4808740;29;20089;-69
2021/10/01 03:54:37;;;;;;;5.18;1.10;;;17.00;64.90;;;;;;4792988;29;20050;-69
2021/10/01 03:57:03;;;;;;;3.67;0.95;;;17.00;64.90;;;;;;4808981;29;20062;-69
2021/10/01 03:59:29;;;;;;;3.75;0.88;;;17.00;64.90;;;;;;4808634;29;20129;-69
2021/10/01 04:01:54;;;;;;;5.03;1.25;;;17.10;64.90;;;;;;4808086;29;20149;-69
2021/10/01 04:04:21;;;;;;;5.03;1.00;;;17.00;64.90;;;;;;4808420;29;20051;-70
2021/10/01 04:06:47;;;;;;;4.35;1.00;;;17.00;64.90;;;;;;4808465;29;20055;-69
2021/10/01 04:09:13;;;;;;;2.10;0.88;;;17.00;64.80;;;;;;4808550;29;20051;-69
2021/10/01 04:11:39;;;;;;;3.42;1.10;;;17.00;64.80;;;;;;4808777;29;20121;-69
2021/10/01 04:14:06;;;;;;;3.35;0.98;;;17.00;64.80;;;;;;4808406;29;20173;-69
2021/10/01 04:16:32;;;;;;;3.03;0.90;;;17.00;64.70;;;;;;4808335;29;20082;-69
2021/10/01 04:18:57;;;;;;;4.90;1.30;;;17.00;64.80;;;;;;4808508;29;20082;-69
2021/10/01 04:21:23;;;;;;;4.07;0.80;;;17.00;64.70;;;;;;4808373;29;20055;-69
2021/10/01 04:23:49;;;;;;;1.85;0.80;;;17.00;64.70;;;;;;4808607;29;20047;-69
2021/10/01 04:26:17;;;;;;;4.70;1.10;;;17.00;64.70;;;;;;4808504;29;20478;-69
2021/10/01 04:28:42;;;;;;;3.65;0.95;;;17.00;64.70;;;;;;4808163;29;20059;-68
2021/10/01 04:31:08;;;;;;;3.10;0.80;;;17.00;64.70;;;;;;4808343;29;20066;-69
2021/10/01 04:33:35;;;;;;;3.10;1.08;;;17.00;64.70;;;;;;4808297;29;20082;-69
2021/10/01 04:36:01;;;;;;;3.88;0.98;;;17.00;64.70;;;;;;4808224;29;20062;-69
2021/10/01 04:38:27;;;;;;;2.00;0.90;;;17.00;64.60;;;;;;4807993;29;20051;-69
2021/10/01 04:40:53;;;;;;;2.72;1.10;;;17.00;64.60;;;;;;4808579;29;20146;-69
2021/10/01 04:43:19;;;;;;;3.17;1.15;;;17.00;64.60;;;;;;4808097;29;20067;-69
2021/10/01 04:45:45;;;;;;;5.13;1.30;;;17.00;64.60;;;;;;4807905;29;20129;-69
2021/10/01 04:48:11;;;;;;;3.55;1.17;;;17.00;64.60;;;;;;4808062;29;20133;-69
2021/10/01 04:50:37;;;;;;;6.15;1.30;;;17.00;64.50;;;;;;4808400;29;20138;-69
2021/10/01 04:53:04;;;;;;;3.60;1.17;;;17.00;64.50;;;;;;4807771;29;20055;-69
2021/10/01 04:55:34;;;;;;;3.42;0.93;;;16.90;64.40;;;;;;4808223;29;20523;-70
2021/10/01 04:58:02;;;;;;;2.97;0.93;;;17.00;64.50;;;;;;4808401;29;20138;-69
2021/10/01 05:00:28;;;;;;;3.38;1.10;;;16.90;64.30;;;;;;4807662;29;20069;-69
2021/10/01 05:02:54;;;;;;;3.67;0.98;;;16.90;64.30;;;;;;4791829;29;20459;-69
2021/10/01 05:05:20;;;;;;;5.00;1.08;;;16.90;64.40;;;;;;4808286;29;20043;-69
2021/10/01 05:07:46;;;;;;;3.50;1.33;;;16.90;64.40;;;;;;4807866;29;20438;-69
2021/10/01 05:10:12;;;;;;;4.22;0.98;;;16.90;64.40;;;;;;4807944;29;20420;-69
2021/10/01 05:12:39;;;;;;;3.92;1.20;;;16.90;64.40;;;;;;4807954;29;20062;-69
2021/10/01 05:15:06;;;;;;;3.40;1.10;;;16.90;64.30;;;;;;4808190;29;20372;-69
2021/10/01 05:17:37;;;;;;;5.43;1.02;;;16.90;64.30;;;;;;4807693;29;20179;-69
2021/10/01 05:20:09;;;;;;;4.90;1.67;;;16.90;64.40;;;;;;4792433;29;20058;-69
2021/10/01 05:22:36;;;;;;;6.70;1.25;;;16.90;64.60;;;;;;4807779;29;20133;-68
2021/10/01 05:25:03;;;;;;;8.60;1.98;;;16.90;65.80;;;;;;4807667;29;20051;-69
2021/10/01 05:27:30;;;;;;;5.32;1.15;;;16.90;68.00;;;;;;4807177;29;20062;-68
2021/10/01 05:29:55;;;;;;;2.83;0.90;;;17.00;69.40;;;;;;4808068;29;20363;-69
2021/10/01 05:32:21;;;;;;;4.35;0.98;;;17.10;69.20;;;;;;4807134;29;20061;-77
2021/10/01 05:34:47;;;;;;;4.38;0.77;;;17.20;68.30;;;;;;4792001;29;20055;-69
2021/10/01 05:37:14;;;;;;;5.30;1.02;;;17.30;68.10;;;;;;4807713;29;20047;-70
2021/10/01 05:39:39;;;;;;;4.85;1.35;;;17.50;68.30;;;;;;4807549;29;20061;-72
2021/10/01 05:42:05;;;;;;;6.25;1.83;;;17.50;68.40;;;;;;4800062;29;20054;-70
2021/10/01 05:44:31;;;;;;;26.67;2.88;;;17.40;67.10;;;;;;4807106;29;20129;-69
2021/10/01 05:47:01;;;;;;;9.73;1.77;;;17.20;67.40;;;;;;4807723;29;20479;-71
2021/10/01 05:49:32;;;;;;;12.23;1.67;;;17.20;68.50;;;;;;4807608;29;20486;-70
2021/10/01 05:52:13;;;;;;;7.65;1.33;;;17.40;69.10;;;;;;4807522;29;20078;-70
2021/10/01 05:54:40;;;;;;;6.03;1.20;;;17.50;69.50;;;;;;4807390;29;20436;-70
2021/10/01 05:57:08;;;;;;;12.75;1.30;;;17.50;69.70;;;;;;4807646;29;20059;-70
2021/10/01 05:59:38;;;;;;;11.18;2.10;;;17.60;69.80;;;;;;4807532;29;20389;-70
2021/10/01 06:02:05;;;;;;;6.47;1.33;;;17.70;69.90;;;;;;4807152;29;20046;-70
2021/10/01 06:04:30;;;;;;;8.32;1.58;;;17.70;69.10;;;;;;4807894;29;20047;-70
2021/10/01 06:06:56;;;;;;;12.77;1.63;;;17.70;69.50;;;;;;4794602;29;20059;-69
2021/10/01 06:09:24;;;;;;;10.40;1.50;;;17.70;70.00;;;;;;4810501;29;20480;-68
2021/10/01 06:11:50;;;;;;;13.05;1.42;;;17.70;69.50;;;;;;4810564;29;20058;-69
2021/10/01 06:14:20;;;;;;;24.00;2.65;;;17.70;69.80;;;;;;4810837;29;20066;-74
2021/10/01 06:16:46;;;;;;;19.27;2.75;;;17.70;69.60;;;;;;4810868;29;20371;-74
2021/10/01 06:19:12;;;;;;;11.95;1.60;;;17.70;69.30;;;;;;4810592;29;20047;-72
2021/10/01 06:21:37;;;;;;;13.77;1.70;;;17.70;68.60;;;;;;4810188;29;20128;-69
2021/10/01 06:24:04;;;;;;;9.85;1.52;;;17.70;68.00;;;;;;4810301;29;20054;-70
2021/10/01 06:26:29;;;;;;;7.28;1.27;;;17.80;67.40;;;;;;4810437;29;20073;-69
2021/10/01 06:28:55;;;;;;;11.65;1.65;;;17.80;66.80;;;;;;4795102;29;20071;-69
2021/10/01 06:31:21;;;;;;;6.32;1.17;;;17.90;67.10;;;;;;4810102;29;20134;-72
2021/10/01 06:33:47;;;;;;;6.22;1.27;;;18.00;66.20;;;;;;4808404;29;20453;-69
2021/10/01 06:36:16;;;;;;;10.30;1.30;;;18.10;65.70;;;;;;4799111;29;20154;-73
2021/10/01 06:38:43;;;;;;;9.45;1.48;;;18.10;65.50;;;;;;4809898;29;20053;-68
2021/10/01 06:41:08;;;;;;;8.45;1.20;;;18.10;65.20;;;;;;4809983;29;20067;-68
2021/10/01 06:43:34;;;;;;;8.55;1.80;;;18.20;64.90;;;;;;4810013;29;20116;-69
2021/10/01 06:46:02;;;;;;;11.95;1.50;;;18.20;64.90;;;;;;4809535;29;20058;-68
2021/10/01 08:18:41;;;;;;;8.07;1.25;;;17.70;66.20;;;;;;4808189;29;20489;-69
2021/10/01 08:21:07;;;;;;;6.43;1.38;;;17.70;66.30;;;;;;4808186;29;20054;-69
2021/10/01 08:23:33;;;;;;;5.63;0.93;;;17.70;66.40;;;;;;4792167;29;20063;-69
2021/10/01 08:25:59;;;;;;;6.18;1.00;;;17.70;66.60;;;;;;4808038;29;20057;-69
2021/10/01 08:28:25;;;;;;;5.93;1.17;;;17.70;66.70;;;;;;4807781;29;20065;-70
2021/10/01 08:30:50;;;;;;;10.70;1.20;;;17.70;66.70;;;;;;4808128;29;20050;-70
2021/10/01 08:33:16;;;;;;;9.73;1.10;;;17.70;66.80;;;;;;4808151;29;20059;-70
2021/10/01 08:35:42;;;;;;;3.35;1.10;;;17.80;66.90;;;;;;4808150;29;20450;-70
2021/10/01 08:38:08;;;;;;;5.70;1.27;;;17.80;67.00;;;;;;4808050;29;20113;-70
2021/10/01 08:40:34;;;;;;;8.52;1.27;;;17.80;67.10;;;;;;4808039;29;20527;-70
2021/10/01 08:43:00;;;;;;;4.13;1.00;;;17.70;67.10;;;;;;4808058;29;20137;-70
2021/10/01 08:45:27;;;;;;;3.72;1.05;;;17.80;67.20;;;;;;4807836;29;20134;-70
2021/10/01 08:47:57;;;;;;;6.25;1.63;;;17.70;67.20;;;;;;4807673;29;20051;-70
2021/10/01 08:50:24;;;;;;;3.28;0.90;;;17.70;67.20;;;;;;4808231;29;20055;-70
2021/10/01 08:52:51;;;;;;;7.78;1.02;;;17.80;67.30;;;;;;4808080;29;20138;-70
2021/10/01 08:55:18;;;;;;;3.88;0.70;;;17.80;67.30;;;;;;4792412;29;20432;-70
2021/10/01 08:57:44;;;;;;;2.13;0.70;;;17.80;67.20;;;;;;4807432;29;20515;-70
2021/10/01 09:00:15;;;;;;;8.20;1.13;;;17.70;67.10;;;;;;4807809;29;20058;-70
2021/10/01 09:02:41;;;;;;;5.40;0.88;;;17.70;67.10;;;;;;4807459;29;20076;-70
2021/10/01 09:05:07;;;;;;;3.65;0.88;;;17.70;67.10;;;;;;4807641;29;20054;-71
2021/10/01 09:07:33;;;;;;;4.53;0.70;;;17.60;66.10;;;;;;4791868;29;20058;-71
2021/10/01 09:09:59;;;;;;;8.18;1.42;;;17.40;65.80;;;;;;4807729;29;20065;-70
2021/10/01 09:12:25;;;;;;;6.20;0.93;;;17.40;66.10;;;;;;4807902;29;20051;-70
2021/10/01 09:15:00;;;;;;;4.78;0.90;;;17.20;66.30;;;;;;4807623;29;20047;-70
2021/10/01 09:17:31;;;;;;;7.07;1.58;;;17.20;67.20;;;;;;4807628;29;20058;-71
2021/10/01 09:19:59;;;;;;;2.30;0.80;;;17.30;67.40;;;;;;4808092;29;20050;-70
2021/10/01 09:22:31;;;;;;;12.30;1.48;;;17.30;67.10;;;;;;4807609;29;20062;-70
2021/10/01 09:25:20;;;;;;;10.68;1.17;;;17.40;66.70;;;;;;4807613;29;20062;-70
2021/10/01 09:27:49;;;;;;;5.88;1.63;;;17.40;66.20;;;;;;4799230;29;20059;-70
2021/10/01 09:30:18;;;;;;;7.97;1.10;;;17.40;66.10;;;;;;4807543;29;20055;-70
2021/10/01 09:33:12;;;;;;;10.40;1.25;;;17.40;66.10;;;;;;4807654;29;20399;-70
2021/10/01 09:35:41;;;;;;;3.80;0.80;;;17.40;65.90;;;;;;4807066;29;20061;-70
2021/10/01 09:38:13;;;;;;;3.35;1.00;;;17.30;66.30;;;;;;4807577;29;20130;-70
2021/10/01 09:40:40;;;;;;;3.60;0.75;;;17.20;66.40;;;;;;4810429;29;20123;-70
2021/10/01 09:43:08;;;;;;;2.78;0.80;;;17.20;66.60;;;;;;4810309;29;20051;-70
2021/10/01 09:45:34;;;;;;;5.70;0.98;;;17.10;66.80;;;;;;4809963;29;20510;-71
2021/10/01 09:48:05;;;;;;;4.47;0.88;;;17.10;67.00;;;;;;4810219;29;20062;-70
2021/10/01 09:50:32;;;;;;;8.77;1.20;;;17.00;67.20;;;;;;4804545;29;20051;-70
2021/10/01 09:53:04;;;;;;;2.30;0.80;;;17.00;67.20;;;;;;4774294;30;20057;-70
2021/10/01 09:55:38;;;;;;;2.30;0.70;;;17.00;67.50;;;;;;4758680;30;20138;-70
2021/10/01 09:58:12;;;;;;;5.03;1.10;;;16.90;67.50;;;;;;4785971;30;20047;-71
2021/10/01 10:00:42;;;;;;;3.10;1.10;;;16.90;67.80;;;;;;4775676;30;20135;-71
2021/10/01 10:03:22;;;;;;;5.18;0.70;;;16.90;68.20;;;;;;4774202;30;20051;-70
2021/10/01 10:05:56;;;;;;;5.15;0.85;;;16.90;68.50;;;;;;4758420;30;20060;-71
2021/10/01 10:08:28;;;;;;;3.60;1.10;;;16.90;68.80;;;;;;4772905;30;20054;-71
2021/10/01 10:11:00;;;;;;;3.67;0.95;;;16.80;69.00;;;;;;4773646;30;20051;-70
2021/10/01 10:13:44;;;;;;;2.08;0.70;;;16.90;69.20;;;;;;4773920;30;20062;-70
2021/10/01 10:16:29;;;;;;;3.13;0.98;;;16.80;69.50;;;;;;4774028;30;20117;-70
2021/10/01 10:19:00;;;;;;;3.45;1.00;;;16.80;69.80;;;;;;4773677;30;20104;-70
2021/10/01 10:21:26;;;;;;;2.53;0.85;;;16.80;70.00;;;;;;4773616;30;20051;-70
2021/10/01 10:23:53;;;;;;;4.57;1.17;;;16.80;70.30;;;;;;4773793;30;20056;-70
2021/10/01 10:26:20;;;;;;;5.00;0.90;;;16.70;70.50;;;;;;4773477;30;20056;-70
2021/10/01 10:28:46;;;;;;;4.10;1.05;;;16.70;70.70;;;;;;4773766;30;20364;-70
2021/10/01 10:31:14;;;;;;;3.17;0.88;;;16.70;70.80;;;;;;4773857;30;20078;-70
2021/10/01 10:33:45;;;;;;;3.17;1.00;;;16.70;70.90;;;;;;4773254;30;20056;-70
2021/10/01 10:36:36;;;;;;;4.43;1.08;;;16.70;71.20;;;;;;4773504;30;20052;-70
2021/10/01 10:39:11;;;;;;;3.25;0.93;;;16.70;71.40;;;;;;4773593;30;20063;-70
2021/10/01 10:41:45;;;;;;;4.20;1.27;;;16.70;71.50;;;;;;4787194;29;20070;-70
2021/10/01 10:44:13;;;;;;;4.25;1.00;;;16.70;71.30;;;;;;4801244;29;20077;-70
2021/10/01 10:46:41;;;;;;;4.45;0.95;;;16.70;71.30;;;;;;4792602;29;20478;-70
2021/10/01 10:49:24;;;;;;;3.60;1.10;;;16.70;71.30;;;;;;4791749;30;20123;-70
2021/10/01 10:52:11;;;;;;;4.00;0.90;;;16.70;71.30;;;;;;4791683;30;20047;-70
2021/10/01 10:54:43;;;;;;;3.08;1.20;;;16.80;71.20;;;;;;4791873;30;20059;-70
2021/10/01 10:57:18;;;;;;;6.30;1.23;;;16.80;71.10;;;;;;4791278;30;20471;-69
2021/10/01 10:59:49;;;;;;;7.03;1.10;;;16.90;71.00;;;;;;4791869;30;20059;-69
2021/10/01 11:02:33;;;;;;;7.20;0.95;;;17.00;70.90;;;;;;4791776;30;20119;-70
2021/10/01 11:05:20;;;;;;;2.38;0.70;;;17.00;70.80;;;;;;4791567;30;20051;-69
2021/10/01 11:07:51;;;;;;;3.75;0.70;;;17.10;70.70;;;;;;4791865;30;20091;-70
2021/10/01 11:10:36;;;;;;;3.60;1.00;;;17.10;70.60;;;;;;4791833;30;20050;-70
2021/10/01 11:13:23;;;;;;;1.98;0.70;;;17.20;70.50;;;;;;4791638;30;20051;-70
2021/10/01 11:16:12;;;;;;;3.70;0.85;;;17.20;70.40;;;;;;4791434;30;20069;-69
2021/10/01 11:18:44;;;;;;;9.95;1.50;;;17.20;70.30;;;;;;4791345;30;20051;-69
2021/10/01 11:21:25;;;;;;;11.18;1.73;;;17.30;70.30;;;;;;4791459;30;20066;-73
2021/10/01 11:24:18;;;;;;;12.40;1.40;;;17.40;70.40;;;;;;4791341;30;20063;-73
2021/10/01 11:26:51;;;;;;;8.43;1.05;;;17.50;70.00;;;;;;4790961;30;20063;-72
2021/10/01 11:29:39;;;;;;;5.30;1.00;;;17.50;70.20;;;;;;4791245;30;20451;-73
2021/10/01 11:32:08;;;;;;;5.75;1.40;;;17.60;69.20;;;;;;4775346;30;20070;-72
2021/10/01 11:34:46;;;;;;;5.13;1.33;;;17.50;69.10;;;;;;4791010;30;20051;-70
2021/10/01 11:37:29;;;;;;;5.20;1.20;;;17.50;69.20;;;;;;4790841;30;20055;-70
2021/10/01 11:40:03;;;;;;;5.68;1.20;;;17.50;69.20;;;;;;4790949;29;20494;-70
2021/10/01 11:42:36;;;;;;;6.15;1.20;;;17.50;69.30;;;;;;4791296;30;20055;-70
2021/10/01 11:45:17;;;;;;;3.38;1.23;;;17.50;69.30;;;;;;4791199;30;20066;-70
2021/10/01 11:47:53;;;;;;;5.72;1.10;;;17.50;69.20;;;;;;4774713;30;20065;-70
2021/10/01 11:50:27;;;;;;;4.45;1.00;;;17.60;69.40;;;;;;4794353;29;20122;-70
2021/10/01 11:52:55;;;;;;;6.90;0.70;;;17.60;69.50;;;;;;4808823;29;20117;-71
2021/10/01 11:55:20;;;;;;;5.50;0.85;;;17.50;69.50;;;;;;4808704;29;20090;-70
2021/10/01 11:57:46;;;;;;;5.13;1.27;;;17.50;69.70;;;;;;4808607;29;20097;-70
2021/10/01 12:00:17;;;;;;;8.52;1.38;;;17.50;69.80;;;;;;4808673;29;20066;-70
2021/10/01 12:02:48;;;;;;;7.47;1.17;;;17.60;70.10;;;;;;4791702;29;20548;-70
2021/10/01 12:05:30;;;;;;;6.97;1.27;;;17.60;70.00;;;;;;4808867;29;20088;-70
2021/10/01 12:08:07;;;;;;;5.32;0.80;;;17.60;70.00;;;;;;4808792;29;20112;-70
2021/10/01 12:10:41;;;;;;;3.10;0.70;;;17.60;70.00;;;;;;4808298;29;20092;-70
2021/10/01 12:13:13;;;;;;;5.97;0.63;;;17.60;70.10;;;;;;4809274;29;20057;-70
2021/10/01 12:15:42;;;;;;;6.77;1.00;;;17.60;70.10;;;;;;4792609;29;20352;-70
2021/10/01 12:18:27;;;;;;;3.30;0.98;;;17.60;70.10;;;;;;4808452;29;20055;-70
2021/10/01 12:20:53;;;;;;;4.13;1.08;;;17.60;70.10;;;;;;4808899;29;20059;-70
2021/10/01 12:23:29;;;;;;;2.47;0.52;;;17.60;70.20;;;;;;4808461;29;20124;-70
2021/10/01 12:25:56;;;;;;;4.45;1.00;;;17.60;70.20;;;;;;4808494;29;20061;-70
2021/10/01 12:28:23;;;;;;;7.93;1.30;;;17.60;70.30;;;;;;4808420;29;20054;-70
2021/10/01 12:31:18;;;;;;;13.32;1.50;;;17.60;70.50;;;;;;4792682;29;20046;-70
2021/10/01 12:33:44;;;;;;;6.05;1.60;;;17.60;70.60;;;;;;4800060;29;20101;-72
2021/10/01 12:36:09;;;;;;;5.57;1.20;;;17.60;71.20;;;;;;4808162;29;20066;-71
2021/10/01 12:38:35;;;;;;;17.13;1.63;;;17.60;71.20;;;;;;4808409;29;20197;-71
2021/10/01 12:41:28;;;;;;;3.72;0.82;;;17.60;71.30;;;;;;4807906;29;20054;-72
2021/10/01 12:44:03;;;;;;;5.10;1.10;;;17.60;72.00;;;;;;4806279;29;20133;-71
2021/10/01 12:46:41;;;;;;;10.52;1.25;;;17.60;72.00;;;;;;4807712;29;20055;-69
2021/10/01 12:49:15;;;;;;;6.63;0.95;;;17.70;71.30;;;;;;4808319;29;20137;-72
2021/10/01 12:51:42;;;;;;;12.95;1.60;;;17.50;72.40;;;;;;4808052;29;20129;-74
2021/10/01 12:54:26;;;;;;;3.20;1.00;;;17.60;71.70;;;;;;4807517;29;20057;-70
2021/10/01 12:57:13;;;;;;;4.90;0.73;;;17.30;71.40;;;;;;4807925;29;20187;-70
2021/10/01 13:00:01;;;;;;;7.45;1.13;;;17.10;72.40;;;;;;4807626;29;20047;-71
2021/10/01 13:02:51;;;;;;;4.47;1.10;;;17.00;73.20;;;;;;4807859;29;20066;-70
2021/10/01 13:05:18;;;;;;;11.90;1.10;;;16.90;73.40;;;;;;4800043;29;20059;-72
2021/10/01 13:07:48;;;;;;;5.38;0.95;;;16.80;73.70;;;;;;4808139;29;20108;-70
2021/10/01 13:10:24;;;;;;;4.97;0.95;;;16.80;74.00;;;;;;4807977;29;20486;-72
2021/10/01 13:12:51;;;;;;;18.42;1.20;;;16.80;74.40;;;;;;4808157;29;20058;-72
2021/10/01 13:15:27;;;;;;;15.80;2.17;;;16.90;74.70;;;;;;4811715;29;20054;-73
2021/10/01 13:18:02;;;;;;;19.42;1.60;;;17.10;75.50;;;;;;4795331;29;20434;-72
2021/10/01 13:20:28;;;;;;;17.70;2.55;;;17.40;75.10;;;;;;4811171;29;20050;-73
2021/10/01 13:22:57;;;;;;;12.00;1.15;;;17.60;74.20;;;;;;4811666;29;20078;-75
2021/10/01 13:25:28;;;;;;;12.20;2.10;;;17.80;73.80;;;;;;4811040;29;20093;-71
2021/10/01 13:27:56;;;;;;;14.27;1.83;;;18.00;73.60;;;;;;4795908;29;20051;-71
2021/10/01 13:30:22;;;;;;;14.10;1.40;;;18.10;73.40;;;;;;4811347;29;20050;-72
2021/10/01 13:32:49;;;;;;;10.73;1.50;;;18.10;73.40;;;;;;4811171;29;20062;-71
2021/10/01 13:35:16;;;;;;;9.30;1.33;;;18.20;73.40;;;;;;4810266;29;20086;-72
2021/10/01 13:37:43;;;;;;;8.00;1.45;;;18.20;73.40;;;;;;4810838;29;20062;-71
2021/10/01 13:40:10;;;;;;;12.93;1.67;;;18.20;73.30;;;;;;4810884;29;20071;-72
2021/10/01 13:42:36;;;;;;;10.38;1.63;;;18.30;73.40;;;;;;4811428;29;20062;-72
2021/10/01 13:45:02;;;;;;;9.60;1.65;;;18.30;73.40;;;;;;4811417;29;20102;-72
2021/10/01 13:47:31;;;;;;;12.52;1.77;;;18.30;73.50;;;;;;4810717;29;20051;-71
2021/10/01 13:49:57;;;;;;;10.82;1.27;;;18.20;73.50;;;;;;4810762;29;20047;-72
2021/10/01 13:52:24;;;;;;;6.25;0.82;;;18.30;73.70;;;;;;4811005;29;20183;-72
2021/10/01 13:54:49;;;;;;;7.50;1.13;;;18.30;73.70;;;;;;4810588;29;20051;-72
2021/10/01 13:57:15;;;;;;;5.13;1.02;;;18.30;73.70;;;;;;4810253;29;20058;-72
2021/10/01 13:59:42;;;;;;;14.63;1.63;;;18.30;73.70;;;;;;4810335;29;20134;-72
2021/10/01 14:02:09;;;;;;;9.68;1.80;;;18.30;73.60;;;;;;4811074;29;20363;-72
2021/10/01 14:04:35;;;;;;;26.55;1.95;;;18.30;73.70;;;;;;4810459;29;20050;-72
2021/10/01 14:07:01;;;;;;;9.15;1.40;;;18.30;73.70;;;;;;4810452;29;20088;-72
2021/10/01 14:09:27;;;;;;;7.97;1.40;;;18.30;73.60;;;;;;4810664;29;20062;-73
2021/10/01 14:11:52;;;;;;;5.97;1.27;;;18.30;73.60;;;;;;4794756;29;20133;-70
2021/10/01 14:14:18;;;;;;;9.20;1.42;;;18.30;73.60;;;;;;4810425;29;20102;-71
2021/10/01 14:16:44;;;;;;;7.43;1.33;;;18.20;73.60;;;;;;4810349;29;20047;-71
2021/10/01 14:19:10;;;;;;;7.47;1.40;;;18.20;73.30;;;;;;4810133;29;20382;-71
2021/10/01 14:21:36;;;;;;;11.60;2.33;;;18.20;73.40;;;;;;4810259;29;20107;-71
2021/10/01 14:24:02;;;;;;;8.63;1.35;;;18.30;73.50;;;;;;4810456;29;20059;-71
2021/10/01 14:26:30;;;;;;;5.80;1.30;;;18.30;73.40;;;;;;4809593;29;20057;-71
2021/10/01 14:28:56;;;;;;;10.57;1.67;;;18.40;73.40;;;;;;4810028;29;20058;-70